Time;durP1;ratioP1;P1;durP2;ratioP2;P2;SDS_P1;SDS_P2;PMS_P1;PMS_P2;Temp;Humidity;BMP_temperature;BMP_pressure;BME280_temperature;BME280_humidity;BME280_pressure;Samples;Min_cycle;Max_cycle;Signal;HPM_P1;HPM_P2
2023/09/16 00:01:08;;;;;;;12.90;11.63;;;14.80;99.90;;;;;;5003911;28;20058;-63
2023/09/16 00:03:35;;;;;;;14.32;12.43;;;14.90;99.90;;;;;;4985138;28;20442;-62
2023/09/16 00:06:04;;;;;;;14.55;13.05;;;14.80;99.90;;;;;;4974658;28;20046;-63
2023/09/16 00:08:35;;;;;;;16.15;13.57;;;14.80;99.90;;;;;;5007578;28;20086;-63
2023/09/16 00:11:01;;;;;;;14.98;13.43;;;14.70;99.90;;;;;;5011858;28;20065;-63
2023/09/16 00:13:28;;;;;;;14.75;12.85;;;14.70;99.90;;;;;;5011944;28;20053;-63
2023/09/16 00:15:54;;;;;;;15.18;12.52;;;14.60;99.90;;;;;;5011821;28;20061;-63
2023/09/16 00:18:20;;;;;;;14.75;13.15;;;14.60;99.90;;;;;;4996558;28;20058;-63
2023/09/16 00:20:50;;;;;;;16.30;12.48;;;14.60;99.90;;;;;;4992101;28;20046;-62
2023/09/16 00:23:16;;;;;;;17.58;12.60;;;14.50;99.90;;;;;;4992292;28;20058;-63
2023/09/16 00:25:42;;;;;;;18.60;13.23;;;14.50;99.90;;;;;;5007506;28;20053;-63
2023/09/16 00:28:08;;;;;;;15.30;12.70;;;14.50;99.90;;;;;;4997612;28;20047;-63
2023/09/16 00:30:42;;;;;;;16.85;13.10;;;14.50;99.90;;;;;;4992011;28;20073;-64
2023/09/16 00:33:08;;;;;;;17.42;12.57;;;14.60;99.90;;;;;;4991525;28;20479;-63
2023/09/16 00:35:34;;;;;;;14.20;12.45;;;14.50;99.90;;;;;;4991624;28;20054;-63
2023/09/16 00:38:01;;;;;;;13.77;11.52;;;14.50;99.90;;;;;;5002001;28;20423;-63
2023/09/16 00:40:27;;;;;;;17.35;12.23;;;14.60;99.90;;;;;;5011678;28;20046;-63
2023/09/16 00:42:53;;;;;;;13.65;12.25;;;14.50;99.90;;;;;;5013092;28;20394;-63
2023/09/16 00:45:20;;;;;;;15.85;12.82;;;14.40;99.90;;;;;;5015369;28;20116;-64
2023/09/16 00:47:46;;;;;;;13.88;12.40;;;14.50;99.90;;;;;;5004888;28;20054;-63
2023/09/16 00:50:13;;;;;;;15.68;12.20;;;14.50;99.90;;;;;;4995765;28;20121;-63
2023/09/16 00:52:45;;;;;;;13.43;12.02;;;14.40;99.90;;;;;;4995710;28;20459;-63
2023/09/16 00:55:11;;;;;;;;;;;14.40;99.90;;;;;;4996070;28;20050;-63
2023/09/16 00:57:41;;;;;;;12.27;11.00;;;14.40;99.90;;;;;;5003233;28;19921;-62
2023/09/16 01:00:08;;;;;;;14.50;11.52;;;14.40;99.90;;;;;;5015146;28;20501;-63
2023/09/16 01:02:36;;;;;;;16.42;11.57;;;14.30;99.90;;;;;;5004708;28;20382;-63
2023/09/16 01:05:05;;;;;;;12.75;11.45;;;14.30;99.90;;;;;;4995115;28;20365;-63
2023/09/16 01:07:31;;;;;;;14.13;12.70;;;14.30;99.90;;;;;;5002443;28;20050;-63
2023/09/16 01:09:57;;;;;;;15.45;12.48;;;14.20;99.90;;;;;;5014796;28;20068;-63
2023/09/16 01:12:24;;;;;;;13.50;11.77;;;14.10;99.90;;;;;;5014581;28;20053;-63
2023/09/16 01:14:50;;;;;;;12.93;11.45;;;14.10;99.90;;;;;;5014614;28;20390;-63
2023/09/16 01:17:27;;;;;;;13.73;12.35;;;14.00;99.90;;;;;;5008131;28;20049;-63
2023/09/16 01:20:02;;;;;;;14.40;12.90;;;14.10;99.90;;;;;;4995007;28;20046;-63
2023/09/16 01:22:29;;;;;;;13.32;11.57;;;14.10;99.90;;;;;;4995191;28;20088;-62
2023/09/16 01:24:59;;;;;;;13.40;11.45;;;14.00;99.90;;;;;;4977818;28;20079;-63
2023/09/16 01:27:25;;;;;;;14.63;12.95;;;14.10;99.90;;;;;;5000748;28;20056;-63
2023/09/16 01:29:51;;;;;;;13.32;11.93;;;14.10;99.90;;;;;;5014275;28;20049;-63
2023/09/16 01:32:30;;;;;;;14.18;11.05;;;14.10;99.90;;;;;;5014210;28;20050;-63
2023/09/16 01:35:00;;;;;;;12.98;11.15;;;14.10;99.90;;;;;;5013882;28;20046;-63
2023/09/16 01:37:29;;;;;;;13.80;11.80;;;14.10;99.90;;;;;;5006548;28;20117;-63
2023/09/16 01:39:57;;;;;;;13.32;11.77;;;14.10;99.90;;;;;;4994330;28;20351;-62
2023/09/16 01:42:26;;;;;;;15.23;12.60;;;14.10;99.90;;;;;;4976923;28;20058;-63
2023/09/16 01:44:55;;;;;;;14.05;12.27;;;14.00;99.90;;;;;;4994099;28;20058;-63
2023/09/16 01:47:22;;;;;;;15.65;11.88;;;14.00;99.90;;;;;;4999629;28;20046;-63
2023/09/16 01:49:48;;;;;;;13.73;12.18;;;13.90;99.90;;;;;;5013823;28;20439;-63
2023/09/16 01:52:16;;;;;;;14.23;12.05;;;13.90;99.90;;;;;;5013711;28;20057;-63
2023/09/16 01:54:42;;;;;;;13.95;12.00;;;13.90;99.90;;;;;;5013477;28;20052;-63
2023/09/16 01:57:09;;;;;;;14.05;12.27;;;13.80;99.90;;;;;;5008900;28;20042;-63
2023/09/16 01:59:35;;;;;;;14.00;12.23;;;14.00;99.90;;;;;;4994178;28;20129;-63
2023/09/16 02:02:01;;;;;;;14.23;11.95;;;14.00;99.90;;;;;;4999494;28;20053;-63
2023/09/16 02:04:27;;;;;;;13.68;12.27;;;13.90;99.90;;;;;;5013870;28;20058;-63
2023/09/16 02:06:54;;;;;;;12.63;11.30;;;13.80;99.90;;;;;;5010957;28;20373;-63
2023/09/16 02:09:20;;;;;;;12.77;11.40;;;13.80;99.90;;;;;;4994106;28;20133;-63
2023/09/16 02:11:46;;;;;;;13.25;11.95;;;13.80;99.90;;;;;;4993636;28;20558;-63
2023/09/16 02:14:16;;;;;;;13.10;11.38;;;13.80;99.90;;;;;;4993718;28;20050;-64
2023/09/16 02:16:44;;;;;;;12.45;11.25;;;13.90;99.90;;;;;;4993366;28;20046;-63
2023/09/16 02:19:11;;;;;;;14.63;12.32;;;13.70;99.90;;;;;;4993824;28;20423;-63
2023/09/16 02:21:38;;;;;;;13.60;12.20;;;13.80;99.90;;;;;;4994055;28;20102;-63
2023/09/16 02:24:04;;;;;;;13.52;12.23;;;13.80;99.90;;;;;;4993618;28;20062;-64
2023/09/16 02:26:31;;;;;;;13.50;12.10;;;13.60;99.90;;;;;;4993574;28;20156;-63
2023/09/16 02:28:57;;;;;;;12.85;11.55;;;13.70;99.90;;;;;;4994330;28;20050;-62
2023/09/16 02:31:26;;;;;;;15.57;12.35;;;13.60;99.90;;;;;;4993405;28;20055;-63
2023/09/16 02:33:59;;;;;;;13.48;12.07;;;13.70;99.90;;;;;;4993449;28;20046;-63
2023/09/16 02:36:26;;;;;;;14.30;12.10;;;13.60;99.90;;;;;;4992804;28;20069;-63
2023/09/16 02:38:53;;;;;;;12.23;10.77;;;13.70;99.90;;;;;;5011072;28;20046;-63
2023/09/16 02:41:19;;;;;;;13.98;12.07;;;13.70;99.90;;;;;;5012886;28;20111;-63
2023/09/16 02:43:46;;;;;;;12.93;11.63;;;13.80;99.90;;;;;;5012737;28;20057;-63
2023/09/16 02:46:13;;;;;;;13.70;11.50;;;13.70;99.90;;;;;;5012348;28;20058;-63
2023/09/16 02:48:40;;;;;;;12.75;11.45;;;13.70;99.90;;;;;;4996681;28;20055;-63
2023/09/16 02:51:09;;;;;;;12.20;11.05;;;13.70;99.90;;;;;;4993008;28;20046;-63
2023/09/16 02:53:36;;;;;;;13.60;12.30;;;13.80;99.90;;;;;;4993220;28;20048;-63
2023/09/16 02:56:03;;;;;;;13.45;12.15;;;13.80;99.90;;;;;;4992149;28;20439;-63
2023/09/16 02:58:29;;;;;;;14.45;12.63;;;13.70;99.90;;;;;;5006313;28;20061;-63
2023/09/16 03:00:56;;;;;;;15.60;13.15;;;13.70;99.90;;;;;;5012470;28;20082;-63
2023/09/16 03:03:22;;;;;;;13.88;12.45;;;13.60;99.90;;;;;;4996341;28;20050;-63
2023/09/16 03:05:48;;;;;;;14.02;11.48;;;13.70;99.90;;;;;;4974461;28;20060;-63
2023/09/16 03:08:15;;;;;;;14.23;10.73;;;13.60;99.90;;;;;;5004562;28;20434;-63
2023/09/16 03:10:41;;;;;;;14.25;12.95;;;13.60;99.90;;;;;;5012190;28;20050;-63
2023/09/16 03:13:07;;;;;;;14.88;12.95;;;13.50;99.90;;;;;;5011982;28;20058;-63
2023/09/16 03:15:46;;;;;;;13.00;11.65;;;13.60;99.90;;;;;;5012035;28;20050;-63
2023/09/16 03:18:12;;;;;;;14.18;12.68;;;13.50;99.90;;;;;;4999733;28;20054;-63
2023/09/16 03:20:38;;;;;;;13.85;12.45;;;13.60;99.90;;;;;;4992612;28;20057;-63
2023/09/16 03:23:04;;;;;;;16.20;12.90;;;13.50;99.90;;;;;;4992594;28;20125;-63
2023/09/16 03:25:31;;;;;;;13.23;11.75;;;13.60;99.90;;;;;;4992404;28;20164;-63
2023/09/16 03:27:57;;;;;;;13.85;12.25;;;13.50;99.90;;;;;;4992639;28;20077;-63
2023/09/16 03:30:23;;;;;;;14.65;13.13;;;13.60;99.90;;;;;;4992489;28;20042;-63
2023/09/16 03:32:50;;;;;;;17.63;11.18;;;13.60;99.90;;;;;;4992476;28;20569;-63
2023/09/16 03:35:16;;;;;;;13.40;12.00;;;13.60;99.90;;;;;;4992266;28;20065;-62
2023/09/16 03:37:42;;;;;;;13.65;12.10;;;13.60;99.90;;;;;;4998881;28;20050;-63
2023/09/16 03:40:08;;;;;;;14.63;13.20;;;13.60;99.90;;;;;;5011878;28;20164;-63
2023/09/16 03:42:35;;;;;;;14.68;12.93;;;13.50;99.90;;;;;;5011739;28;20084;-63
2023/09/16 03:45:01;;;;;;;15.10;13.02;;;13.50;99.90;;;;;;5010574;28;20057;-63
2023/09/16 03:47:27;;;;;;;15.45;12.70;;;13.50;99.90;;;;;;5005496;28;20423;-63
2023/09/16 03:49:53;;;;;;;17.95;14.13;;;13.50;99.90;;;;;;4992193;28;20050;-63
2023/09/16 03:52:20;;;;;;;13.85;12.55;;;13.40;99.90;;;;;;4991956;28;20112;-63
2023/09/16 03:54:46;;;;;;;15.43;12.75;;;13.50;99.90;;;;;;4992025;28;20359;-63
2023/09/16 03:57:12;;;;;;;13.80;11.55;;;13.40;99.90;;;;;;4994288;28;20386;-63
2023/09/16 03:59:38;;;;;;;14.20;11.88;;;13.50;99.90;;;;;;5011696;28;20072;-63
2023/09/16 04:02:04;;;;;;;18.88;14.02;;;13.30;99.90;;;;;;5006003;28;20058;-64
2023/09/16 04:04:31;;;;;;;15.70;14.00;;;13.40;99.90;;;;;;4992059;28;20066;-63
2023/09/16 04:06:57;;;;;;;15.10;13.25;;;13.40;99.90;;;;;;4992845;28;20054;-63
2023/09/16 04:09:23;;;;;;;13.95;12.55;;;13.30;99.90;;;;;;5011885;28;20057;-63
2023/09/16 04:11:49;;;;;;;14.55;13.07;;;13.30;99.90;;;;;;5011627;28;20088;-63
2023/09/16 04:14:16;;;;;;;14.57;13.07;;;13.30;99.90;;;;;;5011441;28;20050;-63
2023/09/16 04:16:43;;;;;;;15.25;13.60;;;13.30;99.90;;;;;;5011184;28;20045;-63
2023/09/16 04:19:12;;;;;;;15.05;13.55;;;13.20;99.90;;;;;;4992492;28;20390;-63
2023/09/16 04:21:38;;;;;;;16.90;13.63;;;13.30;99.90;;;;;;4975061;28;20050;-62
2023/09/16 04:24:04;;;;;;;15.15;13.63;;;13.10;99.90;;;;;;4991561;28;20475;-63
2023/09/16 04:26:31;;;;;;;15.38;13.73;;;13.10;99.90;;;;;;4991674;28;20050;-63
2023/09/16 04:28:57;;;;;;;15.40;13.85;;;13.20;99.90;;;;;;5009137;28;20066;-63
2023/09/16 04:31:24;;;;;;;14.63;13.13;;;13.20;99.90;;;;;;4994439;28;20054;-63
2023/09/16 04:33:50;;;;;;;16.05;13.85;;;13.10;99.90;;;;;;5011521;28;20065;-63
2023/09/16 04:36:16;;;;;;;16.15;14.55;;;13.10;99.90;;;;;;5010731;28;20386;-63
2023/09/16 04:38:42;;;;;;;16.65;14.25;;;13.10;99.90;;;;;;4995602;28;20073;-62
2023/09/16 04:41:08;;;;;;;14.63;13.15;;;13.10;99.90;;;;;;4991556;28;20138;-63
2023/09/16 04:43:35;;;;;;;15.77;14.13;;;13.10;99.90;;;;;;4991689;28;20062;-63
2023/09/16 04:46:02;;;;;;;16.55;13.35;;;13.10;99.90;;;;;;4991374;28;20050;-63
2023/09/16 04:48:28;;;;;;;16.13;14.43;;;13.20;99.90;;;;;;5004846;28;20470;-63
2023/09/16 04:50:54;;;;;;;14.68;13.27;;;13.20;99.90;;;;;;5011216;28;20057;-63
2023/09/16 04:53:21;;;;;;;13.57;11.68;;;13.20;99.90;;;;;;5011381;28;20340;-63
2023/09/16 04:55:47;;;;;;;15.15;13.65;;;13.10;99.90;;;;;;5011081;28;20119;-63
2023/09/16 04:58:13;;;;;;;15.80;14.27;;;13.20;99.90;;;;;;4999439;28;20109;-63
2023/09/16 05:00:39;;;;;;;14.63;13.20;;;13.10;99.90;;;;;;4991597;28;20046;-63
2023/09/16 05:03:06;;;;;;;15.45;13.82;;;13.10;99.90;;;;;;5005757;28;20046;-64
2023/09/16 05:05:33;;;;;;;15.88;13.75;;;13.10;99.90;;;;;;5011223;28;20050;-63
2023/09/16 05:07:59;;;;;;;15.65;13.35;;;13.00;99.90;;;;;;5002074;28;20387;-63
2023/09/16 05:10:26;;;;;;;15.15;13.70;;;13.10;99.90;;;;;;4991832;28;20065;-64
2023/09/16 05:12:52;;;;;;;15.63;14.02;;;13.00;99.90;;;;;;4991614;28;20424;-64
2023/09/16 05:15:18;;;;;;;15.98;14.27;;;13.00;99.90;;;;;;4991362;28;20058;-63
2023/09/16 05:17:44;;;;;;;16.45;14.65;;;13.00;99.90;;;;;;4997749;28;20100;-63
2023/09/16 05:20:11;;;;;;;16.20;14.23;;;13.00;99.90;;;;;;5010905;28;20050;-63
2023/09/16 05:22:38;;;;;;;13.57;12.27;;;12.90;99.90;;;;;;5010723;28;20108;-63
2023/09/16 05:25:05;;;;;;;17.63;14.32;;;12.80;99.90;;;;;;5010890;28;20076;-63
2023/09/16 05:27:32;;;;;;;15.25;12.98;;;12.90;99.90;;;;;;5004630;28;20411;-63
2023/09/16 05:29:58;;;;;;;14.10;12.75;;;12.80;99.90;;;;;;4995174;28;20054;-64
2023/09/16 05:32:24;;;;;;;14.95;12.88;;;12.90;99.90;;;;;;4994849;28;20141;-63
2023/09/16 05:34:50;;;;;;;14.80;13.30;;;12.90;99.90;;;;;;4994619;28;20050;-63
2023/09/16 05:37:17;;;;;;;15.45;12.90;;;12.90;99.90;;;;;;4997090;28;20177;-64
2023/09/16 05:39:43;;;;;;;16.27;13.23;;;12.80;99.90;;;;;;5014905;28;20061;-63
2023/09/16 05:42:09;;;;;;;14.43;13.00;;;12.90;99.90;;;;;;5014147;28;20054;-63
2023/09/16 05:44:36;;;;;;;15.00;13.45;;;12.90;99.90;;;;;;5013856;28;20073;-62
2023/09/16 05:47:02;;;;;;;14.50;13.10;;;12.90;99.90;;;;;;5011613;28;20060;-63
2023/09/16 05:49:28;;;;;;;14.98;13.48;;;13.10;99.90;;;;;;4994264;28;20073;-63
2023/09/16 05:51:55;;;;;;;14.80;13.20;;;13.40;99.90;;;;;;4994533;28;20046;-64
2023/09/16 05:54:22;;;;;;;14.38;12.43;;;13.80;99.90;;;;;;4977182;28;20050;-63
2023/09/16 05:56:49;;;;;;;15.25;13.65;;;14.20;99.90;;;;;;4993358;28;20477;-63
2023/09/16 05:59:15;;;;;;;16.05;14.40;;;14.60;99.90;;;;;;5012707;28;20045;-64
2023/09/16 06:01:42;;;;;;;15.35;13.70;;;14.60;99.90;;;;;;4993382;28;20077;-63
2023/09/16 06:04:08;;;;;;;14.55;13.05;;;14.50;99.90;;;;;;4993977;28;20050;-63
2023/09/16 06:06:36;;;;;;;15.35;12.50;;;14.60;99.90;;;;;;4992308;28;20451;-63
2023/09/16 06:09:05;;;;;;;15.77;13.48;;;14.70;99.90;;;;;;4993109;28;20050;-62
2023/09/16 06:11:31;;;;;;;13.90;11.68;;;14.70;99.90;;;;;;4988170;28;20347;-63
2023/09/16 06:13:57;;;;;;;14.38;12.85;;;14.70;99.90;;;;;;4992721;28;20049;-63
2023/09/16 06:16:24;;;;;;;17.02;15.25;;;14.60;99.90;;;;;;4992517;28;20579;-63
2023/09/16 06:18:50;;;;;;;15.70;13.80;;;14.40;99.90;;;;;;4992790;28;20057;-63
2023/09/16 06:21:16;;;;;;;14.93;13.43;;;14.40;99.90;;;;;;4993254;28;20058;-63
2023/09/16 06:23:43;;;;;;;14.65;13.25;;;14.60;99.90;;;;;;4975375;28;20105;-63
2023/09/16 06:26:10;;;;;;;15.23;13.65;;;14.90;99.90;;;;;;4989733;28;20065;-63
2023/09/16 06:28:37;;;;;;;14.18;12.77;;;15.30;99.90;;;;;;4993174;28;20054;-63
2023/09/16 06:31:04;;;;;;;14.80;13.18;;;15.60;99.90;;;;;;4992169;28;20064;-63
2023/09/16 06:33:30;;;;;;;14.63;12.90;;;15.80;99.90;;;;;;4992273;28;20046;-63
2023/09/16 06:35:57;;;;;;;14.93;13.43;;;15.90;99.90;;;;;;4991759;28;20042;-63
2023/09/16 06:38:23;;;;;;;15.10;13.50;;;16.30;99.90;;;;;;4992159;28;20118;-63
2023/09/16 06:40:49;;;;;;;13.52;12.15;;;16.60;99.90;;;;;;4992273;28;20050;-63
2023/09/16 06:43:15;;;;;;;14.20;12.80;;;16.90;99.90;;;;;;4993258;28;20063;-63
2023/09/16 06:45:41;;;;;;;14.25;12.75;;;17.30;99.90;;;;;;4992591;28;20042;-63
2023/09/16 06:48:08;;;;;;;14.57;13.07;;;17.50;99.90;;;;;;4992605;28;20061;-63
2023/09/16 06:50:35;;;;;;;13.85;12.55;;;17.40;99.90;;;;;;4992595;28;20054;-63
2023/09/16 06:53:01;;;;;;;14.15;12.55;;;17.20;99.90;;;;;;4991931;28;20454;-63
2023/09/16 06:55:27;;;;;;;13.95;12.50;;;17.20;99.90;;;;;;4992495;28;20180;-63
2023/09/16 06:57:54;;;;;;;15.13;13.35;;;17.20;99.90;;;;;;4993201;28;20116;-63
2023/09/16 07:00:20;;;;;;;14.48;12.88;;;17.20;99.90;;;;;;4975564;28;20050;-63
2023/09/16 07:02:46;;;;;;;13.40;12.05;;;17.10;99.90;;;;;;4990779;28;20050;-63
2023/09/16 07:05:12;;;;;;;15.20;13.57;;;17.00;99.90;;;;;;4991880;28;20046;-64
2023/09/16 07:07:41;;;;;;;14.07;12.73;;;16.90;99.90;;;;;;4993405;28;20130;-63
2023/09/16 07:10:07;;;;;;;13.27;11.82;;;17.00;99.90;;;;;;4992163;28;20383;-63
2023/09/16 07:12:33;;;;;;;13.65;11.50;;;16.90;99.90;;;;;;4992503;28;20364;-64
2023/09/16 07:15:00;;;;;;;13.70;12.30;;;16.90;99.90;;;;;;4991022;28;20053;-63
2023/09/16 07:17:26;;;;;;;19.77;14.98;;;17.00;99.90;;;;;;5000409;28;20081;-63
2023/09/16 07:19:52;;;;;;;13.80;12.40;;;17.00;99.90;;;;;;4992874;28;20467;-63
2023/09/16 07:22:20;;;;;;;15.10;12.43;;;16.90;99.90;;;;;;4992743;28;20047;-63
2023/09/16 07:24:46;;;;;;;13.18;11.70;;;17.00;99.90;;;;;;4990606;28;20487;-63
2023/09/16 07:27:12;;;;;;;13.90;12.50;;;17.00;99.90;;;;;;4990357;28;20054;-64
2023/09/16 07:29:38;;;;;;;14.52;13.13;;;17.10;99.90;;;;;;4991353;28;20051;-64
2023/09/16 07:32:05;;;;;;;14.23;12.73;;;17.00;99.90;;;;;;4992435;28;20069;-64
2023/09/16 07:34:31;;;;;;;13.85;12.45;;;17.10;99.90;;;;;;4974922;28;20526;-63
2023/09/16 07:36:58;;;;;;;14.35;12.10;;;17.10;99.90;;;;;;4991231;28;20053;-64
2023/09/16 07:39:25;;;;;;;14.20;12.70;;;17.10;99.90;;;;;;4992459;28;20050;-63
2023/09/16 07:41:51;;;;;;;13.77;12.48;;;17.00;99.90;;;;;;4992306;28;20050;-63
2023/09/16 07:44:17;;;;;;;14.60;13.07;;;17.00;99.90;;;;;;4992437;28;20054;-64
2023/09/16 07:46:43;;;;;;;14.45;13.05;;;17.00;99.90;;;;;;4991573;28;20069;-63
2023/09/16 07:49:10;;;;;;;14.88;13.38;;;17.10;99.90;;;;;;4992998;28;20129;-64
2023/09/16 07:51:39;;;;;;;14.60;13.27;;;17.10;99.90;;;;;;4991884;28;20521;-64
2023/09/16 07:54:09;;;;;;;13.48;12.13;;;17.30;99.90;;;;;;4992010;28;20073;-64
2023/09/16 07:56:35;;;;;;;14.35;12.68;;;17.40;99.90;;;;;;4991914;28;20046;-63
2023/09/16 07:59:01;;;;;;;14.10;12.27;;;17.50;99.90;;;;;;5007913;28;20045;-63
2023/09/16 08:01:29;;;;;;;15.43;12.25;;;17.70;99.90;;;;;;5010444;28;20454;-63
2023/09/16 08:03:55;;;;;;;14.02;12.63;;;17.70;99.90;;;;;;4991423;28;20124;-64
2023/09/16 08:06:23;;;;;;;14.48;13.18;;;17.80;99.90;;;;;;4990935;28;20082;-65
2023/09/16 08:08:49;;;;;;;14.38;12.77;;;17.90;99.90;;;;;;4951071;28;20067;-64
2023/09/16 08:11:16;;;;;;;14.15;12.70;;;18.00;99.90;;;;;;4974595;28;20058;-64
2023/09/16 08:13:42;;;;;;;13.80;11.38;;;18.10;99.90;;;;;;4973735;28;20363;-63
2023/09/16 08:16:08;;;;;;;13.95;12.55;;;18.30;99.90;;;;;;4973942;28;20050;-65
2023/09/16 08:18:34;;;;;;;13.50;12.20;;;18.40;99.90;;;;;;4973450;28;20094;-64
2023/09/16 08:21:01;;;;;;;13.80;11.88;;;18.60;99.90;;;;;;4972501;28;20065;-64
2023/09/16 08:23:27;;;;;;;12.40;11.10;;;18.90;99.90;;;;;;4978196;28;20450;-63
2023/09/16 08:25:53;;;;;;;11.63;10.43;;;19.00;99.90;;;;;;4973548;28;20434;-63
2023/09/16 08:28:20;;;;;;;13.27;11.85;;;19.00;99.90;;;;;;4989037;28;20058;-64
2023/09/16 08:30:46;;;;;;;14.50;12.18;;;19.20;99.90;;;;;;4987906;28;20046;-63
2023/09/16 08:33:12;;;;;;;13.02;11.73;;;19.30;99.90;;;;;;4991303;28;20042;-63
2023/09/16 08:35:38;;;;;;;13.40;12.10;;;19.50;99.90;;;;;;4973932;28;20046;-64
2023/09/16 08:38:07;;;;;;;13.88;12.15;;;19.60;99.90;;;;;;4970625;28;20061;-64
2023/09/16 08:40:33;;;;;;;13.18;11.88;;;19.70;99.90;;;;;;4972745;28;20130;-64
2023/09/16 08:43:20;;;;;;;13.57;12.18;;;19.80;99.90;;;;;;4955197;28;20117;-65
2023/09/16 08:45:58;;;;;;;13.82;12.43;;;19.90;99.90;;;;;;4954649;28;20055;-64
2023/09/16 08:48:27;;;;;;;13.38;12.00;;;19.80;99.90;;;;;;4967028;28;20117;-64
2023/09/16 08:50:55;;;;;;;13.75;12.15;;;20.00;99.90;;;;;;4974278;28;20062;-65
2023/09/16 08:53:27;;;;;;;12.77;11.10;;;20.10;99.90;;;;;;4974000;28;20049;-63
2023/09/16 08:55:55;;;;;;;11.00;9.90;;;20.10;99.90;;;;;;4990940;28;20125;-65
2023/09/16 08:58:22;;;;;;;12.60;10.32;;;20.10;99.90;;;;;;4973474;28;20042;-64
2023/09/16 09:00:48;;;;;;;11.68;9.90;;;20.20;99.90;;;;;;4973549;28;20046;-65
2023/09/16 09:03:15;;;;;;;11.90;10.43;;;20.40;99.90;;;;;;4972091;28;20117;-64
2023/09/16 09:05:43;;;;;;;10.63;9.30;;;20.40;99.90;;;;;;4994551;28;20379;-64
2023/09/16 09:08:13;;;;;;;11.95;10.05;;;20.40;99.90;;;;;;4977585;28;20047;-64
2023/09/16 09:10:40;;;;;;;11.45;10.25;;;20.40;99.90;;;;;;4995294;28;20050;-64
2023/09/16 09:13:11;;;;;;;11.07;10.00;;;20.40;99.90;;;;;;4977106;28;20466;-63
2023/09/16 09:15:42;;;;;;;11.52;9.90;;;20.50;99.90;;;;;;4994581;28;20156;-64
2023/09/16 09:18:11;;;;;;;11.80;10.65;;;20.50;99.90;;;;;;4994202;28;20165;-63
2023/09/16 09:20:38;;;;;;;12.57;10.48;;;20.50;99.90;;;;;;4994701;28;20459;-63
2023/09/16 09:23:04;;;;;;;13.40;12.00;;;20.50;99.90;;;;;;4995049;28;20046;-64
2023/09/16 09:25:36;;;;;;;10.77;9.07;;;20.50;99.90;;;;;;4994251;28;20339;-63
2023/09/16 09:28:04;;;;;;;11.55;10.13;;;20.60;99.90;;;;;;4994337;28;20121;-64
2023/09/16 09:30:33;;;;;;;10.60;9.40;;;20.70;99.90;;;;;;4994875;28;20078;-64
2023/09/16 09:33:00;;;;;;;11.48;9.68;;;20.90;99.90;;;;;;4973767;28;20062;-63
2023/09/16 09:35:28;;;;;;;11.38;10.23;;;21.00;99.90;;;;;;4966594;28;20043;-65
2023/09/16 09:37:56;;;;;;;11.88;10.75;;;21.00;99.90;;;;;;4992367;28;20053;-63
2023/09/16 09:40:22;;;;;;;12.07;9.50;;;21.10;99.90;;;;;;4976876;28;20047;-64
2023/09/16 09:42:51;;;;;;;12.40;9.70;;;21.10;99.90;;;;;;4994007;28;20046;-64
2023/09/16 09:45:21;;;;;;;11.65;9.45;;;21.10;99.90;;;;;;4992722;28;20057;-64
2023/09/16 09:47:49;;;;;;;11.38;10.27;;;21.10;99.90;;;;;;4976128;28;20117;-64
2023/09/16 09:50:17;;;;;;;10.70;9.60;;;21.30;99.90;;;;;;4993886;28;20137;-64
2023/09/16 09:52:52;;;;;;;9.52;8.55;;;21.40;99.90;;;;;;4994261;28;20411;-64
2023/09/16 09:55:23;;;;;;;10.48;8.77;;;21.60;99.90;;;;;;4993484;28;20050;-64
2023/09/16 09:57:51;;;;;;;11.07;8.82;;;21.70;99.90;;;;;;4976941;28;20478;-64
2023/09/16 10:00:19;;;;;;;10.32;8.80;;;21.90;99.90;;;;;;4994337;28;20060;-64
2023/09/16 10:02:47;;;;;;;10.43;8.07;;;22.00;99.90;;;;;;5005498;28;20116;-64
2023/09/16 10:05:23;;;;;;;8.93;7.85;;;22.00;99.90;;;;;;5013310;28;20124;-64
2023/09/16 10:07:51;;;;;;;10.35;7.05;;;22.00;99.90;;;;;;5007917;28;20107;-64
2023/09/16 10:10:22;;;;;;;8.05;7.13;;;22.10;99.90;;;;;;4994198;28;20085;-64
2023/09/16 10:12:51;;;;;;;9.30;7.55;;;22.20;99.90;;;;;;4994211;28;20046;-64
2023/09/16 10:15:48;;;;;;;9.55;7.55;;;22.40;99.90;;;;;;4993748;28;20054;-64
2023/09/16 10:18:14;;;;;;;10.07;7.95;;;22.50;99.90;;;;;;4999738;28;20466;-64
2023/09/16 10:20:43;;;;;;;8.02;7.13;;;22.60;99.90;;;;;;5004816;28;20058;-64
2023/09/16 10:23:10;;;;;;;8.93;7.55;;;22.70;99.90;;;;;;4991761;28;20109;-63
2023/09/16 10:25:36;;;;;;;9.32;8.27;;;22.70;99.90;;;;;;4989730;28;20045;-64
2023/09/16 10:28:05;;;;;;;8.93;8.02;;;22.60;99.90;;;;;;4992611;28;20046;-64
2023/09/16 10:30:33;;;;;;;8.60;7.70;;;22.70;99.90;;;;;;4992401;28;20046;-64
2023/09/16 10:33:02;;;;;;;8.00;7.20;;;22.80;99.90;;;;;;4992244;28;20477;-64
2023/09/16 10:35:29;;;;;;;9.23;8.05;;;22.80;99.90;;;;;;4992124;28;20050;-63
2023/09/16 10:37:59;;;;;;;10.05;8.15;;;22.80;99.90;;;;;;4997957;28;20050;-64
2023/09/16 10:40:26;;;;;;;9.63;7.78;;;23.00;99.90;;;;;;5013074;28;20042;-63
2023/09/16 10:42:53;;;;;;;9.40;8.50;;;23.10;99.90;;;;;;5012962;28;20108;-63
2023/09/16 10:45:21;;;;;;;9.73;7.97;;;23.20;99.90;;;;;;4995277;28;20061;-66
2023/09/16 10:47:49;;;;;;;9.52;7.55;;;23.40;99.90;;;;;;5007487;28;20050;-64
2023/09/16 10:50:19;;;;;;;9.55;8.13;;;23.30;99.90;;;;;;4993373;28;20120;-63
2023/09/16 10:52:55;;;;;;;9.48;8.50;;;23.40;99.90;;;;;;4993013;28;20058;-64
2023/09/16 10:55:58;;;;;;;10.45;7.93;;;23.40;99.90;;;;;;4991549;28;20210;-64
2023/09/16 10:58:42;;;;;;;8.10;7.10;;;23.50;99.90;;;;;;5002498;28;20046;-64
2023/09/16 11:01:11;;;;;;;10.07;9.07;;;23.60;99.90;;;;;;5012564;28;20050;-63
2023/09/16 11:03:41;;;;;;;9.40;8.40;;;23.50;99.90;;;;;;4994009;28;20050;-64
2023/09/16 11:06:07;;;;;;;8.95;7.95;;;23.60;99.90;;;;;;4992657;28;20054;-64
2023/09/16 11:08:33;;;;;;;8.05;6.97;;;23.60;99.90;;;;;;5003725;28;20050;-64
2023/09/16 11:11:00;;;;;;;8.85;7.55;;;23.70;99.90;;;;;;5012614;28;20149;-64
2023/09/16 11:13:28;;;;;;;8.40;7.60;;;23.90;99.90;;;;;;5012359;28;20056;-64
2023/09/16 11:15:58;;;;;;;9.18;8.23;;;23.90;99.90;;;;;;5012350;28;20055;-64
2023/09/16 11:18:25;;;;;;;8.40;7.60;;;24.10;99.90;;;;;;5002284;28;20050;-64
2023/09/16 11:20:52;;;;;;;7.88;7.07;;;24.30;99.90;;;;;;4992930;28;20050;-64
2023/09/16 11:23:18;;;;;;;9.30;7.40;;;24.40;99.90;;;;;;4992452;28;20544;-64
2023/09/16 11:25:45;;;;;;;9.07;8.18;;;24.40;99.90;;;;;;4974509;28;20062;-63
2023/09/16 11:28:13;;;;;;;8.68;7.68;;;24.50;99.90;;;;;;5000007;28;20060;-63
2023/09/16 11:30:39;;;;;;;8.25;6.85;;;24.60;99.90;;;;;;5012286;28;20060;-64
2023/09/16 11:33:10;;;;;;;5.55;4.30;;;24.60;99.90;;;;;;5011990;28;20446;-63
2023/09/16 11:35:38;;;;;;;5.47;3.90;;;24.70;99.90;;;;;;5011815;28;20137;-63
2023/09/16 11:38:05;;;;;;;4.70;3.45;;;24.40;99.90;;;;;;5001060;28;20053;-63
2023/09/16 11:40:34;;;;;;;4.68;3.90;;;24.50;99.90;;;;;;4991245;28;20073;-63
2023/09/16 11:43:01;;;;;;;5.57;3.83;;;24.60;99.90;;;;;;4989557;28;20051;-64
2023/09/16 11:45:28;;;;;;;5.32;4.18;;;24.70;99.90;;;;;;4992057;28;20112;-64
2023/09/16 11:47:55;;;;;;;6.47;4.30;;;24.80;99.90;;;;;;4991799;28;20672;-63
2023/09/16 11:50:26;;;;;;;4.13;3.60;;;24.90;99.90;;;;;;4972369;28;20058;-64
2023/09/16 11:52:52;;;;;;;5.72;4.22;;;24.90;99.90;;;;;;4990805;28;20061;-64
2023/09/16 11:55:19;;;;;;;5.13;4.00;;;24.90;99.90;;;;;;4991090;28;20116;-64
2023/09/16 11:57:47;;;;;;;4.40;3.60;;;25.10;99.90;;;;;;4991438;28;20101;-64
2023/09/16 12:00:14;;;;;;;6.32;3.10;;;25.00;99.90;;;;;;4990782;28;20053;-64
2023/09/16 12:02:41;;;;;;;4.97;3.47;;;25.10;99.90;;;;;;4991510;28;20489;-64
2023/09/16 12:05:09;;;;;;;4.85;3.88;;;25.10;99.90;;;;;;4991120;28;20054;-65
2023/09/16 12:07:36;;;;;;;4.72;3.60;;;25.20;99.90;;;;;;4991903;28;20124;-64
2023/09/16 12:10:05;;;;;;;5.35;3.50;;;25.20;99.90;;;;;;4990180;28;20459;-64
2023/09/16 12:12:31;;;;;;;5.93;4.00;;;25.20;99.90;;;;;;4990387;28;20168;-64
2023/09/16 12:14:59;;;;;;;5.22;3.63;;;25.20;99.90;;;;;;4971678;28;20056;-65
2023/09/16 12:17:26;;;;;;;4.75;3.58;;;25.20;99.90;;;;;;4957290;28;20047;-63
2023/09/16 12:19:54;;;;;;;5.78;4.30;;;25.30;99.90;;;;;;4973946;28;20454;-64
2023/09/16 12:22:21;;;;;;;6.40;3.58;;;25.20;99.90;;;;;;4990813;28;20046;-64
2023/09/16 12:24:53;;;;;;;5.43;3.88;;;25.20;99.90;;;;;;4973603;28;20463;-64
2023/09/16 12:27:20;;;;;;;4.88;4.28;;;25.20;99.90;;;;;;4974599;28;20117;-64
2023/09/16 12:29:47;;;;;;;5.53;3.72;;;25.10;99.90;;;;;;4973229;28;20057;-65
2023/09/16 12:32:15;;;;;;;5.90;3.65;;;25.10;99.90;;;;;;4973646;28;20065;-64